Time;durP1;ratioP1;P1;durP2;ratioP2;P2;SDS_P1;SDS_P2;PMS_P1;PMS_P2;Temp;Humidity;BMP_temperature;BMP_pressure;BME280_temperature;BME280_humidity;BME280_pressure;Samples;Min_cycle;Max_cycle;Signal;HPM_P1;HPM_P2
2023/04/29 00:00:26;;;;;;;0.80;0.70;;;;;;;12.66;100.00;95311.56;5052842;28;20221;-86
2023/04/29 00:03:02;;;;;;;0.60;0.60;;;;;;;12.71;100.00;95319.50;5051865;28;20222;-87
2023/04/29 00:06:44;;;;;;;1.27;0.80;;;;;;;12.67;100.00;95314.94;5052312;28;20279;-86
2023/04/29 00:12:09;;;;;;;0.90;0.90;;;;;;;12.75;100.00;95318.13;4949330;28;20574;-87
2023/04/29 00:18:28;;;;;;;0.60;0.60;;;;;;;12.77;100.00;95312.78;4847651;29;20261;-86
2023/04/29 00:31:52;;;;;;;0.60;0.60;;;;;;;12.85;100.00;95309.22;5039156;28;20740;-86
2023/04/29 00:34:24;;;;;;;0.60;0.60;;;;;;;12.83;100.00;95301.66;5048414;28;20214;-86
2023/04/29 00:37:07;;;;;;;0.60;0.60;;;;;;;12.89;100.00;95313.00;5046326;28;20229;-86
2023/04/29 00:39:34;;;;;;;2.10;0.87;;;;;;;12.84;100.00;95307.63;5049761;28;20194;-86
2023/04/29 00:42:07;;;;;;;0.60;0.60;;;;;;;12.83;100.00;95303.44;5053782;28;20201;-86
2023/04/29 00:44:36;;;;;;;0.57;0.57;;;;;;;12.84;100.00;95302.47;5054776;28;20220;-86
2023/04/29 00:50:41;;;;;;;0.60;0.60;;;;;;;12.94;100.00;95300.25;5022154;28;20220;-86
2023/04/29 00:53:11;;;;;;;0.67;0.67;;;;;;;12.93;100.00;95302.06;5035611;28;20226;-86
2023/04/29 00:55:43;;;;;;;0.60;0.60;;;;;;;12.89;100.00;95290.53;5036629;28;20228;-86
2023/04/29 01:01:32;;;;;;;1.13;0.70;;;;;;;12.90;100.00;95294.69;5053026;28;20209;-87
2023/04/29 01:07:31;;;;;;;0.60;0.60;;;;;;;13.01;100.00;95294.13;5037113;28;20224;-87
2023/04/29 01:10:16;;;;;;;0.97;0.80;;;;;;;12.99;100.00;95295.31;5046364;28;20208;-86
2023/04/29 01:13:06;;;;;;;;;;;;;;;;;;;;;
2023/04/29 01:16:17;;;;;;;0.90;0.80;;;;;;;12.96;100.00;95291.31;5052355;28;20197;-86
2023/04/29 01:19:30;;;;;;;0.70;0.70;;;;;;;12.95;100.00;95292.31;5035578;28;20270;-87
2023/04/29 01:22:31;;;;;;;1.27;0.70;;;;;;;12.91;100.00;95292.91;5039544;28;20189;-87
2023/04/29 01:25:10;;;;;;;0.83;0.83;;;;;;;12.98;100.00;95298.88;5035315;28;20265;-86
2023/04/29 01:27:55;;;;;;;0.80;0.80;;;;;;;13.02;100.00;95300.88;5036627;28;20285;-86
2023/04/29 01:30:56;;;;;;;0.70;0.70;;;;;;;13.05;100.00;95297.91;5035688;28;20197;-88
2023/04/29 01:40:27;;;;;;;1.20;0.90;;;;;;;13.09;100.00;95288.72;5013115;28;20197;-87
2023/04/29 01:43:14;;;;;;;1.53;0.80;;;;;;;13.09;100.00;95295.69;5049225;28;20690;-86
2023/04/29 01:49:06;;;;;;;1.00;0.77;;;;;;;13.08;100.00;95294.13;5054545;28;20253;-86
2023/04/29 01:52:04;;;;;;;0.97;0.97;;;;;;;12.96;100.00;95296.50;5055148;28;20223;-85
2023/04/29 01:57:41;;;;;;;0.90;0.90;;;;;;;13.00;100.00;95287.34;5023171;28;20259;-87
2023/04/29 02:03:20;;;;;;;0.90;0.80;;;;;;;13.15;100.00;95292.34;5051423;28;20793;-86
2023/04/29 02:05:58;;;;;;;0.90;0.90;;;;;;;13.08;100.00;95289.72;5053779;28;20288;-86
2023/04/29 02:08:37;;;;;;;;;;;;;;;;;;;;;
2023/04/29 02:11:29;;;;;;;1.80;1.10;;;;;;;13.16;100.00;95293.94;5036894;28;20224;-88
2023/04/29 02:14:11;;;;;;;1.00;0.90;;;;;;;13.11;100.00;95293.72;5053704;28;20225;-85
2023/04/29 02:16:57;;;;;;;0.90;0.90;;;;;;;13.04;100.00;95296.31;5054401;28;20725;-85
2023/04/29 02:19:33;;;;;;;0.90;0.90;;;;;;;13.10;100.00;95299.88;5044564;28;20205;-86
2023/04/29 02:22:16;;;;;;;1.10;0.93;;;;;;;13.08;100.00;95292.31;5051954;28;20705;-86
2023/04/29 02:24:58;;;;;;;1.00;1.00;;;;;;;13.05;100.00;95290.16;5036313;28;20201;-85
2023/04/29 02:27:44;;;;;;;0.98;0.90;;;;;;;12.98;100.00;95296.31;5043085;28;20194;-86
2023/04/29 02:30:20;;;;;;;1.33;1.03;;;;;;;13.04;100.00;95298.09;5035086;28;20209;-86
2023/04/29 02:32:56;;;;;;;0.93;0.90;;;;;;;13.01;100.00;95299.28;5037451;28;20213;-87
2023/04/29 02:35:36;;;;;;;1.07;1.00;;;;;;;13.04;100.00;95295.50;5056779;28;20223;-87
2023/04/29 02:38:18;;;;;;;0.90;0.90;;;;;;;13.06;100.00;95294.31;5050502;28;20221;-86
2023/04/29 02:41:17;;;;;;;0.90;0.90;;;;;;;13.08;100.00;95299.31;5043496;28;20495;-86
2023/04/29 02:43:55;;;;;;;0.95;0.90;;;;;;;13.12;100.00;95292.72;5037362;28;20317;-86
2023/04/29 02:46:35;;;;;;;1.20;1.10;;;;;;;13.13;100.00;95296.91;5035010;28;20185;-86
2023/04/29 02:52:19;;;;;;;1.20;1.10;;;;;;;13.11;100.00;95299.69;5019359;28;20206;-87
2023/04/29 02:54:48;;;;;;;0.90;0.90;;;;;;;13.18;100.00;95298.91;5034361;28;20198;-86
2023/04/29 02:57:31;;;;;;;1.63;1.17;;;;;;;13.22;100.00;95298.34;5037656;28;20218;-86
2023/04/29 03:00:11;;;;;;;1.30;1.20;;;;;;;13.24;100.00;95300.72;5044193;28;20202;-86
2023/04/29 03:02:41;;;;;;;1.57;1.00;;;;;;;13.24;100.00;95304.09;5054816;28;20648;-87
2023/04/29 03:05:28;;;;;;;1.20;1.10;;;;;;;13.23;100.00;95305.09;5049201;28;20224;-86
2023/04/29 03:07:58;;;;;;;2.00;1.07;;;;;;;13.23;100.00;95304.28;5052895;28;20209;-86
2023/04/29 03:10:40;;;;;;;1.30;1.20;;;;;;;13.24;100.00;95303.31;5039786;28;20202;-86
2023/04/29 03:13:11;;;;;;;2.03;1.20;;;;;;;13.24;100.00;95308.47;5033360;28;20295;-86
2023/04/29 03:18:30;;;;;;;4.57;1.50;;;;;;;13.19;100.00;95303.91;5044626;28;20205;-86
2023/04/29 03:21:03;;;;;;;1.83;1.10;;;;;;;13.17;100.00;95307.66;5037622;28;20228;-86
2023/04/29 03:23:41;;;;;;;1.60;1.27;;;;;;;13.19;100.00;95301.31;5058400;28;20797;-86
2023/04/29 03:26:12;;;;;;;1.40;1.30;;;;;;;13.23;100.00;95299.13;5039100;28;20202;-86
2023/04/29 03:28:41;;;;;;;1.13;1.07;;;;;;;13.23;100.00;95293.97;5037257;28;20300;-86
2023/04/29 03:31:22;;;;;;;2.10;1.30;;;;;;;13.23;100.00;95301.72;5056052;28;20697;-86
2023/04/29 03:33:53;;;;;;;2.13;1.30;;;;;;;13.21;100.00;95299.31;5057305;28;20228;-86
2023/04/29 03:36:23;;;;;;;1.77;1.20;;;;;;;13.21;100.00;95307.06;5054755;28;20284;-85
2023/04/29 03:38:52;;;;;;;1.67;1.57;;;;;;;13.21;100.00;95298.53;5054907;28;20769;-86
2023/04/29 03:41:24;;;;;;;1.40;1.30;;;;;;;13.22;100.00;95300.91;5049872;28;20268;-85
2023/04/29 03:44:00;;;;;;;1.60;1.50;;;;;;;13.19;100.00;95298.72;5058133;28;20818;-85
2023/04/29 03:46:27;;;;;;;2.03;1.40;;;;;;;13.10;100.00;95303.25;5055186;28;20284;-87
2023/04/29 03:49:12;;;;;;;1.20;1.10;;;;;;;13.09;100.00;95300.88;5037921;28;20225;-85
2023/04/29 03:51:47;;;;;;;1.77;1.30;;;;;;;13.09;100.00;95298.28;5041874;28;20236;-86
2023/04/29 03:54:22;;;;;;;1.40;1.30;;;;;;;13.13;100.00;95296.91;5056840;28;20296;-86
2023/04/29 03:56:50;;;;;;;1.47;1.33;;;;;;;13.13;100.00;95297.69;5058326;28;20227;-86
2023/04/29 03:59:19;;;;;;;1.70;1.60;;;;;;;13.18;100.00;95298.91;5055700;28;20194;-88
2023/04/29 04:01:51;;;;;;;2.40;1.50;;;;;;;13.26;100.00;95303.91;5054296;28;20308;-87
2023/04/29 04:04:20;;;;;;;2.47;1.40;;;;;;;13.26;100.00;95304.69;5055080;28;20231;-89
2023/04/29 04:06:50;;;;;;;1.50;1.37;;;;;;;13.25;100.00;95304.91;5055500;28;20208;-88
2023/04/29 04:12:10;;;;;;;1.57;1.47;;;;;;;13.33;100.00;95307.25;5016504;28;20557;-88
2023/04/29 04:15:02;;;;;;;;;;;;;;;;;;;;;
2023/04/29 04:20:58;;;;;;;1.50;1.40;;;;;;;13.49;100.00;95319.78;5046626;28;20213;-89
2023/04/29 04:23:30;;;;;;;1.83;1.63;;;;;;;13.49;100.00;95312.81;5055895;28;20922;-89
2023/04/29 04:29:21;;;;;;;1.63;1.53;;;;;;;13.52;100.00;95316.00;5049358;28;20256;-90
2023/04/29 04:31:50;;;;;;;1.60;1.50;;;;;;;13.49;100.00;95325.75;5048603;28;20225;-86
2023/04/29 04:34:42;;;;;;;2.83;1.63;;;;;;;13.44;100.00;95322.97;5052694;28;20210;-87
2023/04/29 04:37:12;;;;;;;1.90;1.80;;;;;;;13.46;100.00;95325.38;5057135;28;20252;-87
2023/04/29 04:42:25;;;;;;;2.72;1.60;;;;;;;13.43;100.00;95330.94;5056807;28;20205;-89
2023/04/29 04:45:02;;;;;;;2.10;1.90;;;;;;;13.38;100.00;95328.94;5057037;28;20193;-87
2023/04/29 04:47:28;;;;;;;2.75;1.90;;;;;;;13.31;100.00;95328.13;5053955;28;20243;-88
2023/04/29 04:50:01;;;;;;;2.00;1.73;;;;;;;13.37;100.00;95329.16;5057923;28;20202;-86
2023/04/29 04:52:33;;;;;;;2.00;1.83;;;;;;;13.38;100.00;95334.13;5056478;28;20206;-87
2023/04/29 04:55:08;;;;;;;1.87;1.77;;;;;;;13.45;100.00;95328.97;5056271;28;20224;-86
2023/04/29 04:57:40;;;;;;;1.73;1.58;;;;;;;13.47;100.00;95343.25;5056212;28;20216;-86
2023/04/29 05:00:26;;;;;;;4.25;1.88;;;;;;;13.46;100.00;95339.09;5058023;28;20202;-86
2023/04/29 05:02:56;;;;;;;1.60;1.50;;;;;;;13.45;100.00;95339.31;5056921;28;20221;-86
2023/04/29 05:05:29;;;;;;;1.77;1.60;;;;;;;13.48;100.00;95341.47;5056831;28;20197;-87
2023/04/29 05:08:09;;;;;;;3.30;1.70;;;;;;;13.57;100.00;95336.88;5054718;28;20198;-87
2023/04/29 05:10:40;;;;;;;2.00;1.70;;;;;;;13.58;100.00;95343.66;5057348;28;20203;-87
2023/04/29 05:13:08;;;;;;;1.53;1.40;;;;;;;13.64;100.00;95337.69;5057591;28;20225;-87
2023/04/29 05:15:56;;;;;;;2.10;1.80;;;;;;;13.64;100.00;95346.25;5056589;28;20212;-87
2023/04/29 05:18:30;;;;;;;1.87;1.77;;;;;;;13.69;100.00;95345.63;5045580;28;20241;-88
2023/04/29 05:20:58;;;;;;;1.70;1.60;;;;;;;13.69;100.00;95343.81;5060519;28;20210;-86
2023/04/29 05:29:30;;;;;;;1.90;1.77;;;;;;;13.91;100.00;95351.34;5053394;28;20224;-86
2023/04/29 05:32:01;;;;;;;1.65;1.55;;;;;;;13.92;100.00;95358.13;5055058;28;20223;-86
2023/04/29 05:37:11;;;;;;;1.80;1.70;;;;;;;13.88;100.00;95368.09;5042383;28;20232;-87
2023/04/29 05:42:33;;;;;;;2.10;1.90;;;;;;;13.91;100.00;95365.09;5034930;28;20722;-87
2023/04/29 05:45:10;;;;;;;7.93;7.10;;;;;;;13.89;100.00;95366.28;5036504;28;20232;-86
2023/04/29 05:47:42;;;;;;;2.90;2.55;;;;;;;13.95;100.00;95373.25;5035557;28;20202;-86
2023/04/29 05:50:22;;;;;;;2.67;2.47;;;;;;;14.03;100.00;95379.03;5033086;28;20198;-85
2023/04/29 05:52:48;;;;;;;2.35;2.17;;;;;;;14.12;100.00;95372.63;5038970;28;20564;-85
2023/04/29 05:55:26;;;;;;;1.65;1.55;;;;;;;14.20;100.00;95378.59;5055898;28;20217;-85
2023/04/29 05:57:54;;;;;;;1.92;1.83;;;;;;;14.33;100.00;95381.13;5055020;28;20225;-86
2023/04/29 06:00:22;;;;;;;4.25;2.38;;;;;;;14.44;100.00;95386.47;5059611;28;20197;-86
2023/04/29 06:02:54;;;;;;;31.83;26.17;;;;;;;14.53;100.00;95384.47;5057361;28;20225;-87
2023/04/29 06:05:23;;;;;;;5.28;4.40;;;;;;;14.60;100.00;95387.84;5057022;28;20267;-87
2023/04/29 06:07:53;;;;;;;7.30;5.63;;;;;;;14.69;100.00;95388.38;5060668;28;20194;-87
2023/04/29 06:10:21;;;;;;;4.32;3.58;;;;;;;14.73;100.00;95390.34;5048857;28;20199;-87
2023/04/29 06:12:51;;;;;;;6.60;3.50;;;;;;;14.77;100.00;95393.34;5043768;28;20229;-86
2023/04/29 06:15:32;;;;;;;4.07;2.85;;;;;;;14.78;100.00;95395.72;5060094;28;20225;-85
2023/04/29 06:21:32;;;;;;;3.97;3.38;;;;;;;14.84;100.00;95405.25;4996413;28;20214;-85
2023/04/29 06:24:01;;;;;;;3.17;2.80;;;;;;;14.78;100.00;95402.72;5038330;28;20336;-87
2023/04/29 06:26:40;;;;;;;9.20;5.80;;;;;;;14.75;100.00;95403.91;5052368;28;20671;-86
2023/04/29 06:29:09;;;;;;;9.20;6.63;;;;;;;14.80;100.00;95405.88;5052372;28;20197;-86
2023/04/29 06:31:37;;;;;;;3.90;3.55;;;;;;;14.80;100.00;95418.84;5055017;28;20720;-86
2023/04/29 06:34:03;;;;;;;6.78;5.78;;;;;;;14.74;100.00;95422.25;5054835;28;20231;-86
2023/04/29 06:36:34;;;;;;;9.02;8.18;;;;;;;14.67;100.00;95414.50;5055224;28;20926;-87
2023/04/29 06:39:01;;;;;;;15.52;13.70;;;;;;;14.62;100.00;95418.72;5055753;28;20463;-87
2023/04/29 06:41:29;;;;;;;7.25;6.50;;;;;;;14.61;100.00;95423.13;5058068;28;20220;-86
2023/04/29 06:43:55;;;;;;;4.88;4.47;;;;;;;14.65;100.00;95423.47;5056584;28;20235;-87
2023/04/29 06:46:29;;;;;;;4.35;4.00;;;;;;;14.73;100.00;95423.25;5056215;28;20201;-86
2023/04/29 06:48:58;;;;;;;4.57;4.18;;;;;;;14.74;100.00;95417.06;5057233;28;20193;-87
2023/04/29 06:51:28;;;;;;;4.95;4.55;;;;;;;14.82;100.00;95419.41;5055950;28;20213;-88
2023/04/29 06:53:56;;;;;;;5.18;4.40;;;;;;;14.92;100.00;95419.78;5055577;28;20287;-87
2023/04/29 06:56:23;;;;;;;4.85;4.38;;;;;;;14.99;100.00;95420.56;5057282;28;20243;-87
2023/04/29 06:58:51;;;;;;;4.63;4.15;;;;;;;15.11;100.00;95418.06;5056135;28;20221;-87
2023/04/29 07:01:17;;;;;;;4.28;3.97;;;;;;;15.17;100.00;95420.66;5058971;28;20212;-85
2023/04/29 07:03:44;;;;;;;4.05;3.67;;;;;;;15.26;100.00;95421.19;5057756;28;20217;-87
2023/04/29 07:06:11;;;;;;;5.10;3.72;;;;;;;15.41;100.00;95421.66;5059704;28;20702;-86
2023/04/29 07:08:42;;;;;;;4.38;3.80;;;;;;;15.38;100.00;95422.09;5059891;28;20204;-87
2023/04/29 07:11:08;;;;;;;3.70;3.40;;;;;;;15.48;100.00;95417.22;5039941;28;20840;-86
2023/04/29 07:13:35;;;;;;;3.85;3.50;;;;;;;15.63;100.00;95427.34;5039123;28;20229;-88
2023/04/29 07:16:07;;;;;;;3.67;3.22;;;;;;;15.66;99.36;95416.53;5039175;28;20233;-86
2023/04/29 07:18:39;;;;;;;3.67;3.38;;;;;;;15.80;100.00;95422.41;5051842;28;20802;-86
2023/04/29 07:21:09;;;;;;;3.60;3.35;;;;;;;15.88;99.73;95420.34;5054882;28;20655;-87
2023/04/29 07:23:35;;;;;;;3.78;3.47;;;;;;;15.83;99.02;95425.38;5056517;28;20218;-86
2023/04/29 07:26:09;;;;;;;3.60;3.30;;;;;;;15.95;97.94;95422.09;5056674;28;20206;-87
2023/04/29 07:28:35;;;;;;;4.13;3.80;;;;;;;15.94;98.64;95423.09;5059178;28;20208;-87
2023/04/29 07:31:11;;;;;;;3.90;3.60;;;;;;;16.00;97.64;95424.81;5059959;28;20201;-87
2023/04/29 07:33:38;;;;;;;3.50;3.20;;;;;;;16.01;96.66;95424.63;5060827;28;20228;-87
2023/04/29 07:36:06;;;;;;;3.80;3.50;;;;;;;16.01;97.14;95429.00;5059622;28;20201;-87
2023/04/29 07:38:35;;;;;;;3.38;3.17;;;;;;;16.11;95.81;95424.13;5061594;28;20221;-87
2023/04/29 07:41:04;;;;;;;3.72;3.42;;;;;;;16.07;95.33;95428.97;5057843;28;20201;-88
2023/04/29 07:43:30;;;;;;;3.50;3.30;;;;;;;16.22;94.98;95434.59;5056141;28;20312;-87
2023/04/29 07:45:57;;;;;;;3.60;3.20;;;;;;;16.54;92.17;95426.69;5055962;28;20489;-87
2023/04/29 07:48:28;;;;;;;3.33;3.03;;;;;;;16.74;88.85;95421.31;5054646;28;20198;-86
2023/04/29 07:50:54;;;;;;;3.10;2.90;;;;;;;16.73;89.60;95425.72;5055020;28;20231;-88
2023/04/29 07:53:21;;;;;;;2.85;2.65;;;;;;;16.65;92.51;95427.78;5054421;28;20286;-86
2023/04/29 07:55:48;;;;;;;3.00;2.70;;;;;;;16.57;90.35;95424.44;5056289;28;20201;-87
2023/04/29 07:58:14;;;;;;;3.10;2.90;;;;;;;16.63;91.11;95424.59;5055344;28;20250;-86
2023/04/29 08:00:40;;;;;;;3.10;2.90;;;;;;;17.00;91.85;95420.16;5055126;28;20296;-86
2023/04/29 08:03:07;;;;;;;3.85;2.50;;;;;;;16.91;88.87;95419.69;5053927;28;20320;-87
2023/04/29 08:05:35;;;;;;;3.20;2.90;;;;;;;16.96;87.61;95419.78;5054706;28;20553;-87
2023/04/29 08:08:01;;;;;;;2.80;2.60;;;;;;;16.93;88.54;95425.47;5055317;28;20209;-87
2023/04/29 08:10:34;;;;;;;4.82;2.45;;;;;;;16.78;88.24;95431.03;5041741;28;20865;-87
2023/04/29 08:13:01;;;;;;;2.85;2.65;;;;;;;16.58;87.98;95427.81;5035138;28;20313;-87
2023/04/29 08:15:28;;;;;;;3.03;2.83;;;;;;;16.37;87.39;95423.06;5053573;28;20213;-87
2023/04/29 08:17:55;;;;;;;2.95;2.75;;;;;;;16.33;88.76;95427.91;5055796;28;20313;-87
2023/04/29 08:20:21;;;;;;;2.78;2.58;;;;;;;16.83;86.99;95415.56;5058359;28;20908;-89
2023/04/29 08:22:58;;;;;;;2.70;2.45;;;;;;;17.21;83.33;95422.28;5058054;28;20221;-87
2023/04/29 08:25:25;;;;;;;2.15;2.05;;;;;;;17.71;81.10;95422.75;5057205;28;20259;-87
2023/04/29 08:27:52;;;;;;;2.50;2.30;;;;;;;17.80;79.29;95421.41;5056800;28;20201;-87
2023/04/29 08:30:46;;;;;;;2.63;2.22;;;;;;;18.01;79.27;95421.88;5056743;28;20289;-87
2023/04/29 08:33:16;;;;;;;3.25;2.28;;;;;;;17.60;77.84;95426.09;5057288;28;20232;-87
2023/04/29 08:35:49;;;;;;;2.45;2.10;;;;;;;17.73;78.99;95418.09;5056246;28;20288;-87
2023/04/29 08:38:33;;;;;;;2.15;2.00;;;;;;;17.55;78.43;95420.78;5056537;28;20228;-87
2023/04/29 08:41:16;;;;;;;2.17;2.00;;;;;;;17.94;76.68;95421.97;5054998;28;20284;-87
2023/04/29 08:43:53;;;;;;;2.22;2.03;;;;;;;17.81;76.14;95423.00;5056272;28;20441;-88
2023/04/29 08:46:46;;;;;;;1.90;1.80;;;;;;;18.40;75.55;95418.56;5057632;28;20201;-87
2023/04/29 08:49:15;;;;;;;1.95;1.75;;;;;;;18.75;70.57;95412.50;5059695;28;20202;-87
2023/04/29 08:51:52;;;;;;;2.30;2.10;;;;;;;18.29;70.00;95422.75;5061118;28;20213;-87
2023/04/29 08:54:27;;;;;;;1.95;1.75;;;;;;;18.25;70.58;95423.47;5066970;22;20240;-88
2023/04/29 08:56:58;;;;;;;3.55;1.58;;;;;;;18.02;70.01;95424.25;5039055;28;20232;-89
2023/04/29 08:59:51;;;;;;;2.00;1.90;;;;;;;17.66;71.08;95424.47;5039657;28;20316;-87
2023/04/29 09:02:24;;;;;;;1.80;1.70;;;;;;;17.41;75.08;95422.78;5024865;28;20260;-89
2023/04/29 09:05:04;;;;;;;1.80;1.67;;;;;;;17.22;74.82;95421.25;5023744;28;20699;-89
2023/04/29 09:07:44;;;;;;;2.40;1.73;;;;;;;17.31;76.75;95425.16;5021500;28;20252;-88
2023/04/29 09:10:27;;;;;;;1.88;1.70;;;;;;;17.23;78.11;95430.66;5020275;28;20274;-87
2023/04/29 09:15:52;;;;;;;3.58;1.70;;;;;;;18.62;68.36;95421.41;5014833;28;20222;-87
2023/04/29 09:22:00;;;;;;;2.65;1.52;;;;;;;18.96;64.81;95410.06;5016034;28;20205;-87
2023/04/29 09:24:40;;;;;;;1.67;1.50;;;;;;;18.50;66.88;95420.56;5017819;28;20217;-87
2023/04/29 09:27:44;;;;;;;2.15;1.50;;;;;;;17.95;67.65;95413.94;5017832;28;20206;-88
2023/04/29 09:30:20;;;;;;;2.15;1.45;;;;;;;17.71;70.22;95422.75;4937979;29;20205;-89
2023/04/29 09:33:14;;;;;;;1.40;1.30;;;;;;;17.55;69.30;95424.16;4937896;29;20265;-88
2023/04/29 09:35:40;;;;;;;1.75;1.50;;;;;;;17.36;70.44;95420.06;5014214;28;20202;-88
2023/04/29 09:41:18;;;;;;;2.65;1.70;;;;;;;18.44;69.47;95418.91;5014847;28;20278;-88
2023/04/29 09:44:27;;;;;;;1.88;1.35;;;;;;;19.03;64.39;95407.31;5010354;28;20226;-89
2023/04/29 09:47:33;;;;;;;2.70;1.60;;;;;;;19.62;63.23;95403.41;4962938;29;20201;-88
2023/04/29 09:50:12;;;;;;;1.75;1.50;;;;;;;19.95;60.94;95407.03;4957103;29;20205;-88
2023/04/29 09:52:44;;;;;;;1.50;1.40;;;;;;;20.00;61.32;95410.53;4956211;29;20866;-87
2023/04/29 09:55:11;;;;;;;3.70;1.63;;;;;;;20.11;60.12;95415.88;4955878;29;20291;-88
2023/04/29 09:57:39;;;;;;;2.55;1.55;;;;;;;19.77;59.91;95412.50;5016464;28;20298;-88
2023/04/29 10:00:14;;;;;;;3.53;1.42;;;;;;;19.42;58.66;95410.88;5017610;28;20268;-88
2023/04/29 10:02:43;;;;;;;1.40;1.30;;;;;;;19.55;58.97;95402.75;5015775;28;20272;-87
2023/04/29 10:05:14;;;;;;;2.83;1.40;;;;;;;19.64;59.73;95398.72;5016650;28;20218;-89
2023/04/29 10:10:30;;;;;;;1.50;1.40;;;;;;;19.49;61.78;95410.72;5014348;28;20205;-87
2023/04/29 10:13:07;;;;;;;1.70;1.60;;;;;;;19.22;64.45;95408.72;5015982;28;20231;-89
2023/04/29 10:15:42;;;;;;;1.88;1.70;;;;;;;18.86;65.82;95415.06;5020128;28;20195;-88
2023/04/29 10:18:26;;;;;;;2.08;1.88;;;;;;;18.47;68.13;95415.84;5017506;28;20198;-88
2023/04/29 10:21:04;;;;;;;2.30;2.10;;;;;;;18.14;69.73;95417.22;5017363;28;20194;-89
2023/04/29 10:23:33;;;;;;;2.17;2.00;;;;;;;18.02;70.76;95410.44;5016358;28;20254;-87
2023/04/29 10:26:03;;;;;;;2.30;2.10;;;;;;;17.90;71.51;95413.81;5018020;28;20211;-87
2023/04/29 10:28:40;;;;;;;1.90;1.80;;;;;;;18.09;70.49;95421.56;5017869;28;20234;-88
2023/04/29 10:31:12;;;;;;;5.65;2.00;;;;;;;18.03;72.01;95415.44;5021500;28;20236;-89
2023/04/29 10:33:44;;;;;;;1.85;1.75;;;;;;;18.11;69.81;95417.66;5024838;28;20233;-88
2023/04/29 10:38:54;;;;;;;2.35;2.10;;;;;;;19.32;64.42;95403.66;5023067;28;20218;-89
2023/04/29 10:41:28;;;;;;;2.03;1.75;;;;;;;19.85;63.93;95409.47;5023370;28;20198;-88
2023/04/29 10:43:55;;;;;;;2.08;1.75;;;;;;;20.27;61.15;95394.94;5022006;28;20257;-87
2023/04/29 10:46:27;;;;;;;2.58;1.70;;;;;;;20.63;60.59;95396.19;5021595;28;20614;-87
2023/04/29 10:49:05;;;;;;;1.77;1.67;;;;;;;20.26;59.55;95403.00;5021931;28;20230;-88
2023/04/29 10:51:33;;;;;;;2.28;1.80;;;;;;;19.66;59.12;95399.28;5020248;28;20228;-88
2023/04/29 10:54:08;;;;;;;2.15;1.70;;;;;;;19.48;60.42;95402.09;5019188;28;20241;-87
2023/04/29 10:56:42;;;;;;;1.85;1.67;;;;;;;19.44;61.14;95402.78;5019049;28;20213;-87
2023/04/29 10:59:13;;;;;;;2.00;1.60;;;;;;;19.39;60.37;95400.91;5019585;28;20222;-87
2023/04/29 11:01:55;;;;;;;3.17;1.80;;;;;;;19.55;60.80;95400.16;5018887;28;20195;-88
2023/04/29 11:07:39;;;;;;;2.78;1.60;;;;;;;20.28;58.86;95406.19;5017782;28;20661;-87
2023/04/29 11:10:09;;;;;;;1.48;1.38;;;;;;;20.53;56.71;95397.91;5017775;28;20195;-88
2023/04/29 11:12:36;;;;;;;2.45;1.63;;;;;;;20.75;57.22;95390.06;5018591;28;20187;-87
2023/04/29 11:15:21;;;;;;;1.52;1.42;;;;;;;21.06;55.87;95391.97;5018712;28;20711;-87
2023/04/29 11:17:56;;;;;;;2.70;1.60;;;;;;;20.89;55.15;95376.34;5019108;28;20198;-88
2023/04/29 11:20:26;;;;;;;1.70;1.60;;;;;;;20.57;56.51;95396.41;5019829;28;20240;-88
2023/04/29 11:23:22;;;;;;;1.52;1.42;;;;;;;20.58;55.65;95392.75;5019329;28;20819;-88
2023/04/29 11:26:05;;;;;;;2.10;1.50;;;;;;;20.51;55.19;95390.31;4985419;28;20206;-87
2023/04/29 11:28:47;;;;;;;1.50;1.40;;;;;;;20.22;55.84;95396.69;5016906;28;20672;-88
2023/04/29 11:31:21;;;;;;;1.85;1.45;;;;;;;20.48;55.26;95398.63;5016410;28;20414;-87
2023/04/29 11:33:51;;;;;;;1.73;1.35;;;;;;;20.33;55.73;95399.22;5016098;28;20223;-87
2023/04/29 11:36:27;;;;;;;1.50;1.40;;;;;;;20.35;53.47;95396.34;5016814;28;20221;-87
2023/04/29 11:38:54;;;;;;;3.20;1.55;;;;;;;20.54;54.32;95399.50;5015943;28;20214;-89
2023/04/29 11:41:25;;;;;;;1.38;1.27;;;;;;;20.69;52.39;95395.22;5015086;28;20228;-88
2023/04/29 11:44:02;;;;;;;1.40;1.30;;;;;;;20.87;52.02;95391.50;5015280;28;20251;-87
2023/04/29 11:46:50;;;;;;;1.83;1.52;;;;;;;20.67;52.11;95402.53;5016930;28;20295;-87
2023/04/29 11:49:41;;;;;;;2.92;2.60;;;;;;;20.26;52.00;95409.03;5019761;28;20199;-88
2023/04/29 11:52:21;;;;;;;4.35;3.28;;;;;;;19.97;52.65;95407.59;5021424;28;20218;-87
2023/04/29 11:54:53;;;;;;;4.43;3.47;;;;;;;19.71;53.27;95409.00;5019233;28;20317;-88
2023/04/29 11:57:33;;;;;;;2.20;2.00;;;;;;;19.65;53.07;95418.59;5020635;28;20234;-87
2023/04/29 12:00:03;;;;;;;2.03;1.73;;;;;;;19.53;53.48;95419.69;5019576;28;20310;-88
2023/04/29 12:02:51;;;;;;;3.60;1.35;;;;;;;19.54;52.50;95414.25;5019910;28;20638;-87
2023/04/29 12:05:40;;;;;;;1.67;1.58;;;;;;;19.76;53.15;95408.31;5019635;28;20210;-88
2023/04/29 12:08:45;;;;;;;1.70;1.40;;;;;;;19.58;52.72;95412.75;5020660;28;20203;-89
2023/04/29 12:11:30;;;;;;;2.17;1.45;;;;;;;19.79;53.38;95406.03;5019786;28;20794;-87
2023/04/29 12:14:06;;;;;;;1.40;1.30;;;;;;;19.73;53.21;95409.56;5019492;28;20226;-88
2023/04/29 12:16:45;;;;;;;1.23;1.17;;;;;;;19.52;53.16;95412.88;5020439;28;20221;-87
2023/04/29 12:19:14;;;;;;;1.10;1.10;;;;;;;19.33;51.90;95402.63;5022099;28;20218;-87
2023/04/29 12:21:54;;;;;;;1.40;1.30;;;;;;;19.50;52.44;95410.50;5017554;28;20207;-87
2023/04/29 12:24:31;;;;;;;1.50;1.40;;;;;;;19.79;51.67;95408.63;5015123;28;20703;-87
2023/04/29 12:34:44;;;;;;;1.10;1.10;;;;;;;20.62;50.10;95406.91;4951929;28;20344;-88
2023/04/29 12:49:53;;;;;;;1.10;1.10;;;;;;;20.78;48.70;95407.91;4953579;29;20201;-87
2023/04/29 12:52:27;;;;;;;0.93;0.93;;;;;;;20.91;49.50;95410.13;4896615;29;20207;-87
2023/04/29 12:54:54;;;;;;;1.13;1.02;;;;;;;21.17;49.75;95417.19;4879835;29;20198;-87
2023/04/29 12:57:27;;;;;;;1.98;1.40;;;;;;;21.23;48.94;95416.25;4895159;29;20235;-87
2023/04/29 13:21:54;;;;;;;2.60;1.00;;;;;;;21.19;47.65;95409.88;4942838;26;20702;-87
2023/04/29 13:24:34;;;;;;;11.45;10.38;;;;;;;21.45;46.40;95412.78;4975945;28;20322;-87
2023/04/29 13:27:02;;;;;;;10.63;9.57;;;;;;;21.71;45.17;95412.75;4999562;28;20203;-89
2023/04/29 13:29:32;;;;;;;5.70;5.20;;;;;;;21.76;45.69;95419.84;4999327;28;20200;-87
2023/04/29 13:32:03;;;;;;;2.28;1.58;;;;;;;21.52;45.92;95414.19;5000319;28;20230;-87
2023/04/29 13:34:44;;;;;;;1.08;0.90;;;;;;;21.34;45.86;95419.78;4999727;28;20688;-87
2023/04/29 13:37:33;;;;;;;2.58;1.00;;;;;;;21.35;45.34;95414.28;4996367;28;20204;-88
2023/04/29 13:40:03;;;;;;;0.95;0.95;;;;;;;21.28;45.08;95410.28;5007998;28;20218;-87
2023/04/29 13:42:29;;;;;;;1.77;1.60;;;;;;;21.32;46.26;95406.94;5019141;28;20277;-87
2023/04/29 13:45:07;;;;;;;2.35;2.15;;;;;;;21.26;46.28;95407.91;5018638;28;20488;-87
2023/04/29 13:47:37;;;;;;;2.15;1.27;;;;;;;21.19;44.93;95406.47;5015942;28;20207;-89
2023/04/29 13:50:13;;;;;;;2.58;1.65;;;;;;;21.11;45.35;95405.13;5018682;28;20199;-88
2023/04/29 13:52:43;;;;;;;11.98;6.35;;;;;;;21.23;45.22;95418.06;5017966;28;20668;-88
2023/04/29 13:58:01;;;;;;;0.88;0.88;;;;;;;21.06;44.71;95409.50;5015564;28;20210;-88
2023/04/29 14:00:44;;;;;;;1.98;1.00;;;;;;;20.96;45.01;95410.19;5018630;28;20305;-86
2023/04/29 14:03:19;;;;;;;7.60;6.80;;;;;;;20.73;46.00;95415.69;5017631;28;20215;-87
2023/04/29 14:05:57;;;;;;;1.95;1.83;;;;;;;20.65;45.94;95411.66;5018537;28;20202;-87
2023/04/29 14:08:38;;;;;;;1.63;1.52;;;;;;;20.37;45.33;95402.16;5018636;28;20226;-87
2023/04/29 14:11:23;;;;;;;1.00;1.00;;;;;;;20.51;46.51;95407.81;5001485;28;20203;-88
2023/04/29 14:14:00;;;;;;;2.25;0.82;;;;;;;20.69;46.24;95407.53;4999410;28;20231;-87
2023/04/29 14:16:37;;;;;;;1.30;1.20;;;;;;;20.71;45.91;95413.31;4998709;28;20207;-88
2023/04/29 14:19:06;;;;;;;1.10;1.10;;;;;;;20.62;47.02;95414.75;5002922;28;20226;-88
2023/04/29 14:21:36;;;;;;;1.63;1.00;;;;;;;20.62;47.64;95414.75;5019700;28;20204;-88
2023/04/29 14:24:04;;;;;;;1.60;1.23;;;;;;;20.77;48.07;95416.78;5016903;28;20222;-89
2023/04/29 14:26:33;;;;;;;1.00;1.00;;;;;;;20.77;47.96;95419.41;5017024;28;20568;-87
2023/04/29 14:29:06;;;;;;;1.85;0.90;;;;;;;20.87;48.09;95414.28;5015142;28;20319;-89
2023/04/29 14:31:37;;;;;;;1.85;1.00;;;;;;;20.97;47.67;95424.88;5016177;28;20702;-87